sensor_id;sensor_type;location;lat;lon;timestamp;temperature;humidity
8313;DHT22;4194;43.408;24.626;2022-09-29T00:00:11;16.20;99.90
8313;DHT22;4194;43.408;24.626;2022-09-29T00:02:37;16.20;99.90
8313;DHT22;4194;43.408;24.626;2022-09-29T00:05:03;16.30;99.90
8313;DHT22;4194;43.408;24.626;2022-09-29T00:07:29;16.30;99.90
8313;DHT22;4194;43.408;24.626;2022-09-29T00:09:56;16.10;99.90
8313;DHT22;4194;43.408;24.626;2022-09-29T00:12:22;16.10;99.90
8313;DHT22;4194;43.408;24.626;2022-09-29T00:14:48;16.00;99.90
8313;DHT22;4194;43.408;24.626;2022-09-29T00:17:13;15.80;99.90
8313;DHT22;4194;43.408;24.626;2022-09-29T00:19:39;16.00;99.90
8313;DHT22;4194;43.408;24.626;2022-09-29T00:22:05;16.00;99.90
8313;DHT22;4194;43.408;24.626;2022-09-29T00:24:30;15.90;99.90
8313;DHT22;4194;43.408;24.626;2022-09-29T00:26:56;15.80;99.90
8313;DHT22;4194;43.408;24.626;2022-09-29T00:29:22;15.80;99.90
8313;DHT22;4194;43.408;24.626;2022-09-29T00:31:48;15.80;99.90
8313;DHT22;4194;43.408;24.626;2022-09-29T00:34:14;15.80;99.90
8313;DHT22;4194;43.408;24.626;2022-09-29T00:36:39;15.90;99.90
8313;DHT22;4194;43.408;24.626;2022-09-29T00:39:06;15.70;99.90
8313;DHT22;4194;43.408;24.626;2022-09-29T00:41:34;15.60;99.90
8313;DHT22;4194;43.408;24.626;2022-09-29T00:44:04;15.60;99.90
8313;DHT22;4194;43.408;24.626;2022-09-29T00:51:42;15.60;99.90
8313;DHT22;4194;43.408;24.626;2022-09-29T00:54:09;15.50;99.90
8313;DHT22;4194;43.408;24.626;2022-09-29T00:56:37;15.50;99.90
8313;DHT22;4194;43.408;24.626;2022-09-29T00:59:07;15.40;99.90
8313;DHT22;4194;43.408;24.626;2022-09-29T01:01:34;15.30;99.90
8313;DHT22;4194;43.408;24.626;2022-09-29T01:04:04;15.60;99.90
8313;DHT22;4194;43.408;24.626;2022-09-29T01:07:11;15.50;99.90
8313;DHT22;4194;43.408;24.626;2022-09-29T01:09:36;15.30;99.90
8313;DHT22;4194;43.408;24.626;2022-09-29T01:12:03;15.40;99.90
8313;DHT22;4194;43.408;24.626;2022-09-29T01:14:31;15.30;99.90
8313;DHT22;4194;43.408;24.626;2022-09-29T01:16:57;15.30;99.90
8313;DHT22;4194;43.408;24.626;2022-09-29T01:19:48;15.00;99.90
8313;DHT22;4194;43.408;24.626;2022-09-29T01:37:09;14.90;99.90
8313;DHT22;4194;43.408;24.626;2022-09-29T01:39:57;14.80;99.90
8313;DHT22;4194;43.408;24.626;2022-09-29T01:42:55;14.90;99.90
8313;DHT22;4194;43.408;24.626;2022-09-29T01:47:54;14.60;99.90
8313;DHT22;4194;43.408;24.626;2022-09-29T01:50:26;14.80;99.90
8313;DHT22;4194;43.408;24.626;2022-09-29T01:53:00;14.90;99.90
8313;DHT22;4194;43.408;24.626;2022-09-29T01:55:29;14.70;99.90
8313;DHT22;4194;43.408;24.626;2022-09-29T01:58:14;14.70;99.90
8313;DHT22;4194;43.408;24.626;2022-09-29T02:00:48;14.50;99.90
8313;DHT22;4194;43.408;24.626;2022-09-29T02:03:17;14.70;99.90
8313;DHT22;4194;43.408;24.626;2022-09-29T02:05:46;14.80;99.90
8313;DHT22;4194;43.408;24.626;2022-09-29T02:08:45;14.60;99.90
8313;DHT22;4194;43.408;24.626;2022-09-29T02:11:13;14.60;99.90
8313;DHT22;4194;43.408;24.626;2022-09-29T02:13:50;14.60;99.90
8313;DHT22;4194;43.408;24.626;2022-09-29T02:16:22;14.60;99.90
8313;DHT22;4194;43.408;24.626;2022-09-29T02:18:53;14.70;99.90
8313;DHT22;4194;43.408;24.626;2022-09-29T02:21:21;14.70;99.90
8313;DHT22;4194;43.408;24.626;2022-09-29T02:23:48;14.70;99.90
8313;DHT22;4194;43.408;24.626;2022-09-29T02:26:15;14.60;99.90
8313;DHT22;4194;43.408;24.626;2022-09-29T02:28:43;14.70;99.90
8313;DHT22;4194;43.408;24.626;2022-09-29T02:31:09;14.70;99.90
8313;DHT22;4194;43.408;24.626;2022-09-29T02:33:35;14.60;99.90
8313;DHT22;4194;43.408;24.626;2022-09-29T02:41:38;14.40;99.90
8313;DHT22;4194;43.408;24.626;2022-09-29T02:44:20;14.60;99.90
8313;DHT22;4194;43.408;24.626;2022-09-29T02:49:44;14.40;99.90
8313;DHT22;4194;43.408;24.626;2022-09-29T02:55:09;14.20;99.90
8313;DHT22;4194;43.408;24.626;2022-09-29T02:57:52;14.40;99.90
8313;DHT22;4194;43.408;24.626;2022-09-29T03:00:21;14.40;99.90
8313;DHT22;4194;43.408;24.626;2022-09-29T03:02:47;14.30;99.90
8313;DHT22;4194;43.408;24.626;2022-09-29T03:05:15;14.30;99.90
8313;DHT22;4194;43.408;24.626;2022-09-29T03:07:42;14.20;99.90
8313;DHT22;4194;43.408;24.626;2022-09-29T03:10:09;14.50;99.90
8313;DHT22;4194;43.408;24.626;2022-09-29T03:12:35;14.30;99.90
8313;DHT22;4194;43.408;24.626;2022-09-29T03:15:01;14.30;99.90
8313;DHT22;4194;43.408;24.626;2022-09-29T03:17:26;14.40;99.90
8313;DHT22;4194;43.408;24.626;2022-09-29T03:19:52;14.40;99.90
8313;DHT22;4194;43.408;24.626;2022-09-29T03:22:18;14.40;99.90
8313;DHT22;4194;43.408;24.626;2022-09-29T03:24:44;14.50;99.90
8313;DHT22;4194;43.408;24.626;2022-09-29T03:27:10;13.70;99.90
8313;DHT22;4194;43.408;24.626;2022-09-29T03:29:36;14.30;99.90
8313;DHT22;4194;43.408;24.626;2022-09-29T03:32:03;14.50;99.90
8313;DHT22;4194;43.408;24.626;2022-09-29T03:34:29;14.50;99.90
8313;DHT22;4194;43.408;24.626;2022-09-29T03:36:54;14.40;99.90
8313;DHT22;4194;43.408;24.626;2022-09-29T03:39:21;14.50;99.90
8313;DHT22;4194;43.408;24.626;2022-09-29T03:41:47;14.50;99.90
8313;DHT22;4194;43.408;24.626;2022-09-29T03:44:12;14.40;99.90
8313;DHT22;4194;43.408;24.626;2022-09-29T03:46:38;14.50;99.90
8313;DHT22;4194;43.408;24.626;2022-09-29T03:49:03;14.40;99.90
8313;DHT22;4194;43.408;24.626;2022-09-29T03:51:29;14.40;99.90
8313;DHT22;4194;43.408;24.626;2022-09-29T03:53:55;14.40;99.90
8313;DHT22;4194;43.408;24.626;2022-09-29T03:56:21;14.40;99.90
8313;DHT22;4194;43.408;24.626;2022-09-29T03:58:46;14.40;99.90
8313;DHT22;4194;43.408;24.626;2022-09-29T04:01:12;14.40;99.90
8313;DHT22;4194;43.408;24.626;2022-09-29T04:03:38;14.50;99.90
8313;DHT22;4194;43.408;24.626;2022-09-29T04:06:04;14.40;99.90
8313;DHT22;4194;43.408;24.626;2022-09-29T04:08:30;14.40;99.90
8313;DHT22;4194;43.408;24.626;2022-09-29T04:10:55;14.40;99.90
8313;DHT22;4194;43.408;24.626;2022-09-29T04:13:21;14.40;99.90
8313;DHT22;4194;43.408;24.626;2022-09-29T04:15:48;14.40;99.90
8313;DHT22;4194;43.408;24.626;2022-09-29T04:18:13;14.60;99.90
8313;DHT22;4194;43.408;24.626;2022-09-29T04:20:39;14.40;99.90
8313;DHT22;4194;43.408;24.626;2022-09-29T04:23:05;14.50;99.90
8313;DHT22;4194;43.408;24.626;2022-09-29T04:25:32;14.30;99.90
8313;DHT22;4194;43.408;24.626;2022-09-29T04:27:58;14.60;99.90
8313;DHT22;4194;43.408;24.626;2022-09-29T04:30:24;14.50;99.90
8313;DHT22;4194;43.408;24.626;2022-09-29T04:32:50;14.60;99.90
8313;DHT22;4194;43.408;24.626;2022-09-29T04:35:15;14.60;99.90
8313;DHT22;4194;43.408;24.626;2022-09-29T04:37:41;14.60;99.90
8313;DHT22;4194;43.408;24.626;2022-09-29T04:40:07;13.50;99.90
8313;DHT22;4194;43.408;24.626;2022-09-29T04:42:34;14.70;99.90
8313;DHT22;4194;43.408;24.626;2022-09-29T04:45:00;14.70;99.90
8313;DHT22;4194;43.408;24.626;2022-09-29T04:47:25;14.80;99.90
8313;DHT22;4194;43.408;24.626;2022-09-29T04:49:51;14.80;99.90
8313;DHT22;4194;43.408;24.626;2022-09-29T04:52:17;15.00;99.90
8313;DHT22;4194;43.408;24.626;2022-09-29T04:54:42;14.90;99.90
8313;DHT22;4194;43.408;24.626;2022-09-29T04:57:08;14.90;99.90
8313;DHT22;4194;43.408;24.626;2022-09-29T04:59:35;15.00;99.90
8313;DHT22;4194;43.408;24.626;2022-09-29T05:02:00;15.10;99.90
8313;DHT22;4194;43.408;24.626;2022-09-29T05:04:26;15.20;99.90
8313;DHT22;4194;43.408;24.626;2022-09-29T05:06:52;15.30;99.90
8313;DHT22;4194;43.408;24.626;2022-09-29T05:09:17;15.40;99.90
8313;DHT22;4194;43.408;24.626;2022-09-29T05:11:43;15.50;99.90
8313;DHT22;4194;43.408;24.626;2022-09-29T05:14:09;15.70;99.90
8313;DHT22;4194;43.408;24.626;2022-09-29T05:16:35;15.80;99.90
8313;DHT22;4194;43.408;24.626;2022-09-29T05:19:01;15.70;99.90
8313;DHT22;4194;43.408;24.626;2022-09-29T05:21:27;15.80;99.90
8313;DHT22;4194;43.408;24.626;2022-09-29T05:23:53;15.70;99.90
8313;DHT22;4194;43.408;24.626;2022-09-29T05:26:19;16.00;99.90
8313;DHT22;4194;43.408;24.626;2022-09-29T05:28:46;16.70;99.90
8313;DHT22;4194;43.408;24.626;2022-09-29T05:31:13;16.00;99.90
8313;DHT22;4194;43.408;24.626;2022-09-29T05:33:39;16.10;99.90
8313;DHT22;4194;43.408;24.626;2022-09-29T05:36:07;16.10;99.90
8313;DHT22;4194;43.408;24.626;2022-09-29T05:38:36;16.20;99.90
8313;DHT22;4194;43.408;24.626;2022-09-29T05:41:07;16.20;99.90
8313;DHT22;4194;43.408;24.626;2022-09-29T05:43:34;16.30;99.90
8313;DHT22;4194;43.408;24.626;2022-09-29T05:46:00;16.30;99.90
8313;DHT22;4194;43.408;24.626;2022-09-29T05:48:27;16.30;99.90
8313;DHT22;4194;43.408;24.626;2022-09-29T05:50:58;16.40;99.90
8313;DHT22;4194;43.408;24.626;2022-09-29T05:53:24;16.50;99.90
8313;DHT22;4194;43.408;24.626;2022-09-29T05:55:50;16.70;99.90
8313;DHT22;4194;43.408;24.626;2022-09-29T05:58:16;16.70;99.90
8313;DHT22;4194;43.408;24.626;2022-09-29T06:00:42;16.80;99.90
8313;DHT22;4194;43.408;24.626;2022-09-29T06:03:08;17.00;99.90
8313;DHT22;4194;43.408;24.626;2022-09-29T06:05:37;17.10;99.90
8313;DHT22;4194;43.408;24.626;2022-09-29T06:08:03;17.20;99.90
8313;DHT22;4194;43.408;24.626;2022-09-29T06:10:29;17.40;99.90
8313;DHT22;4194;43.408;24.626;2022-09-29T06:13:04;17.50;99.90
8313;DHT22;4194;43.408;24.626;2022-09-29T06:15:29;17.70;99.90
8313;DHT22;4194;43.408;24.626;2022-09-29T06:17:56;17.80;99.90
8313;DHT22;4194;43.408;24.626;2022-09-29T06:20:22;18.00;99.90
8313;DHT22;4194;43.408;24.626;2022-09-29T06:22:48;18.00;99.90
8313;DHT22;4194;43.408;24.626;2022-09-29T06:25:15;18.30;99.90
8313;DHT22;4194;43.408;24.626;2022-09-29T06:27:41;18.10;99.90
8313;DHT22;4194;43.408;24.626;2022-09-29T06:30:07;18.50;99.90
8313;DHT22;4194;43.408;24.626;2022-09-29T06:32:33;18.50;99.90
8313;DHT22;4194;43.408;24.626;2022-09-29T06:35:00;18.60;99.90
8313;DHT22;4194;43.408;24.626;2022-09-29T06:37:45;17.80;99.90
8313;DHT22;4194;43.408;24.626;2022-09-29T06:40:12;19.00;99.90
8313;DHT22;4194;43.408;24.626;2022-09-29T06:42:38;19.10;99.90
8313;DHT22;4194;43.408;24.626;2022-09-29T06:45:04;19.10;99.90
8313;DHT22;4194;43.408;24.626;2022-09-29T06:47:30;19.40;99.90
8313;DHT22;4194;43.408;24.626;2022-09-29T06:49:56;19.60;99.90
8313;DHT22;4194;43.408;24.626;2022-09-29T06:52:26;19.60;99.90
8313;DHT22;4194;43.408;24.626;2022-09-29T06:54:51;19.60;99.90
8313;DHT22;4194;43.408;24.626;2022-09-29T06:57:17;19.70;99.90
8313;DHT22;4194;43.408;24.626;2022-09-29T06:59:43;18.90;99.90
8313;DHT22;4194;43.408;24.626;2022-09-29T07:02:10;19.80;99.90
8313;DHT22;4194;43.408;24.626;2022-09-29T07:04:36;20.00;99.90
8313;DHT22;4194;43.408;24.626;2022-09-29T07:07:01;20.30;99.90
8313;DHT22;4194;43.408;24.626;2022-09-29T07:09:27;21.40;99.90
8313;DHT22;4194;43.408;24.626;2022-09-29T07:11:53;19.90;99.90
8313;DHT22;4194;43.408;24.626;2022-09-29T07:14:20;20.80;99.90
8313;DHT22;4194;43.408;24.626;2022-09-29T07:16:47;20.80;99.90
8313;DHT22;4194;43.408;24.626;2022-09-29T07:19:13;22.10;99.90
8313;DHT22;4194;43.408;24.626;2022-09-29T07:21:39;21.20;99.90
8313;DHT22;4194;43.408;24.626;2022-09-29T07:24:06;21.60;99.90
8313;DHT22;4194;43.408;24.626;2022-09-29T07:26:32;21.70;99.90
8313;DHT22;4194;43.408;24.626;2022-09-29T07:28:57;21.90;99.90
8313;DHT22;4194;43.408;24.626;2022-09-29T07:31:23;22.20;99.90
8313;DHT22;4194;43.408;24.626;2022-09-29T07:33:49;22.60;99.90
8313;DHT22;4194;43.408;24.626;2022-09-29T07:36:17;23.20;99.90
8313;DHT22;4194;43.408;24.626;2022-09-29T07:38:50;23.20;99.60
8313;DHT22;4194;43.408;24.626;2022-09-29T07:41:18;23.20;99.80
8313;DHT22;4194;43.408;24.626;2022-09-29T07:43:43;23.60;98.20
8313;DHT22;4194;43.408;24.626;2022-09-29T07:46:09;23.80;95.20
8313;DHT22;4194;43.408;24.626;2022-09-29T07:48:36;23.90;92.00
8313;DHT22;4194;43.408;24.626;2022-09-29T07:51:12;23.80;90.70
8313;DHT22;4194;43.408;24.626;2022-09-29T07:53:39;24.70;90.60
8313;DHT22;4194;43.408;24.626;2022-09-29T07:56:07;24.70;91.20
8313;DHT22;4194;43.408;24.626;2022-09-29T07:58:34;25.00;88.70
8313;DHT22;4194;43.408;24.626;2022-09-29T08:01:01;24.90;90.70
8313;DHT22;4194;43.408;24.626;2022-09-29T08:03:29;25.20;90.00
8313;DHT22;4194;43.408;24.626;2022-09-29T08:05:55;25.30;85.80
8313;DHT22;4194;43.408;24.626;2022-09-29T08:08:22;25.90;75.00
8313;DHT22;4194;43.408;24.626;2022-09-29T08:10:48;25.90;75.60
8313;DHT22;4194;43.408;24.626;2022-09-29T08:13:13;26.10;73.00
8313;DHT22;4194;43.408;24.626;2022-09-29T08:15:39;26.30;73.60
8313;DHT22;4194;43.408;24.626;2022-09-29T08:18:05;26.40;69.50
8313;DHT22;4194;43.408;24.626;2022-09-29T08:20:31;26.50;70.30
8313;DHT22;4194;43.408;24.626;2022-09-29T08:22:57;26.80;67.20
8313;DHT22;4194;43.408;24.626;2022-09-29T08:25:23;26.60;65.60
8313;DHT22;4194;43.408;24.626;2022-09-29T08:27:52;26.80;63.50
8313;DHT22;4194;43.408;24.626;2022-09-29T08:30:18;26.90;63.60
8313;DHT22;4194;43.408;24.626;2022-09-29T08:32:50;26.90;63.50
8313;DHT22;4194;43.408;24.626;2022-09-29T08:35:16;27.00;61.40
8313;DHT22;4194;43.408;24.626;2022-09-29T08:37:42;27.20;62.40
8313;DHT22;4194;43.408;24.626;2022-09-29T08:40:08;26.60;59.30
8313;DHT22;4194;43.408;24.626;2022-09-29T08:43:08;27.10;60.20
8313;DHT22;4194;43.408;24.626;2022-09-29T08:45:43;27.30;59.60
8313;DHT22;4194;43.408;24.626;2022-09-29T08:48:23;27.20;59.20
8313;DHT22;4194;43.408;24.626;2022-09-29T08:50:59;26.70;56.50
8313;DHT22;4194;43.408;24.626;2022-09-29T08:53:30;27.50;57.70
8313;DHT22;4194;43.408;24.626;2022-09-29T08:56:01;27.70;57.40
8313;DHT22;4194;43.408;24.626;2022-09-29T08:58:27;27.70;56.40
8313;DHT22;4194;43.408;24.626;2022-09-29T09:03:52;27.60;57.50
8313;DHT22;4194;43.408;24.626;2022-09-29T09:06:54;27.70;57.10
8313;DHT22;4194;43.408;24.626;2022-09-29T09:20:33;27.70;55.80
8313;DHT22;4194;43.408;24.626;2022-09-29T09:23:15;27.80;56.60
8313;DHT22;4194;43.408;24.626;2022-09-29T09:25:53;28.10;56.90
8313;DHT22;4194;43.408;24.626;2022-09-29T09:28:26;28.20;56.50
8313;DHT22;4194;43.408;24.626;2022-09-29T09:31:22;28.30;55.60
8313;DHT22;4194;43.408;24.626;2022-09-29T09:34:09;28.00;53.80
8313;DHT22;4194;43.408;24.626;2022-09-29T09:36:49;27.90;54.80
8313;DHT22;4194;43.408;24.626;2022-09-29T09:39:28;27.90;54.50
8313;DHT22;4194;43.408;24.626;2022-09-29T09:41:58;28.30;54.50
8313;DHT22;4194;43.408;24.626;2022-09-29T09:44:33;28.30;53.80
8313;DHT22;4194;43.408;24.626;2022-09-29T09:47:22;28.30;53.30
8313;DHT22;4194;43.408;24.626;2022-09-29T09:50:01;28.60;53.30
8313;DHT22;4194;43.408;24.626;2022-09-29T09:55:17;29.50;53.20
8313;DHT22;4194;43.408;24.626;2022-09-29T10:01:06;30.00;52.10
8313;DHT22;4194;43.408;24.626;2022-09-29T10:03:33;30.20;50.80
8313;DHT22;4194;43.408;24.626;2022-09-29T10:06:00;30.40;50.50
8313;DHT22;4194;43.408;24.626;2022-09-29T10:08:27;30.30;49.90
8313;DHT22;4194;43.408;24.626;2022-09-29T10:10:55;30.40;49.00
8313;DHT22;4194;43.408;24.626;2022-09-29T10:13:27;30.40;49.80
8313;DHT22;4194;43.408;24.626;2022-09-29T10:16:20;30.60;49.60
8313;DHT22;4194;43.408;24.626;2022-09-29T10:18:49;31.00;49.10
8313;DHT22;4194;43.408;24.626;2022-09-29T10:21:42;31.20;47.80
8313;DHT22;4194;43.408;24.626;2022-09-29T10:24:28;31.40;47.30
8313;DHT22;4194;43.408;24.626;2022-09-29T10:26:57;31.30;46.80
8313;DHT22;4194;43.408;24.626;2022-09-29T10:29:37;31.20;47.80
8313;DHT22;4194;43.408;24.626;2022-09-29T10:32:05;31.00;48.60
8313;DHT22;4194;43.408;24.626;2022-09-29T10:34:33;31.50;48.20
8313;DHT22;4194;43.408;24.626;2022-09-29T10:37:03;31.70;47.30
8313;DHT22;4194;43.408;24.626;2022-09-29T10:42:31;32.50;47.00
8313;DHT22;4194;43.408;24.626;2022-09-29T10:45:35;32.30;45.70
8313;DHT22;4194;43.408;24.626;2022-09-29T10:48:13;32.30;45.50
8313;DHT22;4194;43.408;24.626;2022-09-29T10:50:52;32.60;45.00
8313;DHT22;4194;43.408;24.626;2022-09-29T10:55:54;32.70;44.30
8313;DHT22;4194;43.408;24.626;2022-09-29T10:58:41;33.00;44.40
8313;DHT22;4194;43.408;24.626;2022-09-29T11:01:13;33.20;43.80
8313;DHT22;4194;43.408;24.626;2022-09-29T11:06:13;33.80;42.80
8313;DHT22;4194;43.408;24.626;2022-09-29T11:11:39;33.20;44.10
8313;DHT22;4194;43.408;24.626;2022-09-29T11:14:07;33.10;44.50
8313;DHT22;4194;43.408;24.626;2022-09-29T11:16:54;32.50;45.50
8313;DHT22;4194;43.408;24.626;2022-09-29T11:19:20;32.60;46.10
8313;DHT22;4194;43.408;24.626;2022-09-29T11:43:25;35.50;41.50
8313;DHT22;4194;43.408;24.626;2022-09-29T11:50:55;37.60;40.30
8313;DHT22;4194;43.408;24.626;2022-09-29T11:56:29;39.30;37.50
8313;DHT22;4194;43.408;24.626;2022-09-29T11:59:27;40.50;35.30
8313;DHT22;4194;43.408;24.626;2022-09-29T12:02:13;41.70;34.90
8313;DHT22;4194;43.408;24.626;2022-09-29T12:10:22;42.40;34.10
8313;DHT22;4194;43.408;24.626;2022-09-29T12:13:04;42.80;33.20
8313;DHT22;4194;43.408;24.626;2022-09-29T12:16:03;41.30;34.00
8313;DHT22;4194;43.408;24.626;2022-09-29T12:18:48;39.30;36.80
8313;DHT22;4194;43.408;24.626;2022-09-29T12:21:26;36.60;39.00
8313;DHT22;4194;43.408;24.626;2022-09-29T12:23:53;34.60;40.60
8313;DHT22;4194;43.408;24.626;2022-09-29T12:26:22;31.30;44.90
8313;DHT22;4194;43.408;24.626;2022-09-29T12:28:59;31.20;45.40
8313;DHT22;4194;43.408;24.626;2022-09-29T12:31:27;30.90;46.80
8313;DHT22;4194;43.408;24.626;2022-09-29T12:34:01;33.80;42.30
8313;DHT22;4194;43.408;24.626;2022-09-29T12:36:49;34.00;43.00
8313;DHT22;4194;43.408;24.626;2022-09-29T12:39:36;32.50;42.00
8313;DHT22;4194;43.408;24.626;2022-09-29T12:45:13;32.90;44.00
8313;DHT22;4194;43.408;24.626;2022-09-29T12:50:32;34.70;43.10
8313;DHT22;4194;43.408;24.626;2022-09-29T12:53:17;34.90;43.80
8313;DHT22;4194;43.408;24.626;2022-09-29T12:56:00;38.70;38.10
8313;DHT22;4194;43.408;24.626;2022-09-29T12:58:49;42.30;33.60
8313;DHT22;4194;43.408;24.626;2022-09-29T13:01:28;41.60;33.60
8313;DHT22;4194;43.408;24.626;2022-09-29T13:04:08;42.10;33.30
8313;DHT22;4194;43.408;24.626;2022-09-29T13:17:22;46.60;29.80
8313;DHT22;4194;43.408;24.626;2022-09-29T13:20:16;46.50;29.40
8313;DHT22;4194;43.408;24.626;2022-09-29T13:25:35;47.10;28.30
8313;DHT22;4194;43.408;24.626;2022-09-29T13:28:04;47.70;28.30
8313;DHT22;4194;43.408;24.626;2022-09-29T13:30:37;48.20;28.30
8313;DHT22;4194;43.408;24.626;2022-09-29T13:33:20;48.80;28.80
8313;DHT22;4194;43.408;24.626;2022-09-29T13:35:47;49.40;27.90
8313;DHT22;4194;43.408;24.626;2022-09-29T13:38:23;49.80;27.70
8313;DHT22;4194;43.408;24.626;2022-09-29T13:41:12;49.80;27.60
8313;DHT22;4194;43.408;24.626;2022-09-29T13:52:27;49.30;28.30
8313;DHT22;4194;43.408;24.626;2022-09-29T13:54:42;49.10;27.00
8313;DHT22;4194;43.408;24.626;2022-09-29T14:04:58;49.10;27.30
8313;DHT22;4194;43.408;24.626;2022-09-29T14:07:45;47.10;28.20
8313;DHT22;4194;43.408;24.626;2022-09-29T14:10:25;43.90;31.10
8313;DHT22;4194;43.408;24.626;2022-09-29T14:13:05;43.30;31.60
8313;DHT22;4194;43.408;24.626;2022-09-29T14:15:34;43.50;32.40
8313;DHT22;4194;43.408;24.626;2022-09-29T14:18:04;44.10;32.00
8313;DHT22;4194;43.408;24.626;2022-09-29T14:20:36;45.00;31.10
8313;DHT22;4194;43.408;24.626;2022-09-29T14:23:04;46.00;30.30
8313;DHT22;4194;43.408;24.626;2022-09-29T14:28:08;46.60;29.20
8313;DHT22;4194;43.408;24.626;2022-09-29T14:35:52;45.40;29.90
8313;DHT22;4194;43.408;24.626;2022-09-29T14:43:43;44.50;31.00
8313;DHT22;4194;43.408;24.626;2022-09-29T14:53:12;41.10;33.60
8313;DHT22;4194;43.408;24.626;2022-09-29T15:01:30;37.70;36.70
8313;DHT22;4194;43.408;24.626;2022-09-29T15:04:09;37.40;37.60
8313;DHT22;4194;43.408;24.626;2022-09-29T15:06:50;34.70;41.20
8313;DHT22;4194;43.408;24.626;2022-09-29T15:09:26;32.10;46.50
8313;DHT22;4194;43.408;24.626;2022-09-29T15:11:54;30.60;48.70
8313;DHT22;4194;43.408;24.626;2022-09-29T15:14:27;29.00;51.90
8313;DHT22;4194;43.408;24.626;2022-09-29T15:19:44;27.30;54.80
8313;DHT22;4194;43.408;24.626;2022-09-29T15:25:46;26.60;58.00
8313;DHT22;4194;43.408;24.626;2022-09-29T15:28:30;26.10;60.60
8313;DHT22;4194;43.408;24.626;2022-09-29T15:31:03;26.00;61.40
8313;DHT22;4194;43.408;24.626;2022-09-29T15:33:33;25.80;62.00
8313;DHT22;4194;43.408;24.626;2022-09-29T15:36:27;26.40;64.80
8313;DHT22;4194;43.408;24.626;2022-09-29T15:39:07;25.10;63.90
8313;DHT22;4194;43.408;24.626;2022-09-29T15:41:38;24.40;65.30
8313;DHT22;4194;43.408;24.626;2022-09-29T15:44:16;25.30;67.10
8313;DHT22;4194;43.408;24.626;2022-09-29T15:46:48;24.70;68.10
8313;DHT22;4194;43.408;24.626;2022-09-29T15:49:18;24.70;68.80
8313;DHT22;4194;43.408;24.626;2022-09-29T15:52:06;24.40;70.00
8313;DHT22;4194;43.408;24.626;2022-09-29T15:54:41;24.00;71.40
8313;DHT22;4194;43.408;24.626;2022-09-29T15:57:30;24.70;73.30
8313;DHT22;4194;43.408;24.626;2022-09-29T16:02:54;23.90;74.70
8313;DHT22;4194;43.408;24.626;2022-09-29T16:05:32;23.70;76.40
8313;DHT22;4194;43.408;24.626;2022-09-29T16:08:06;23.40;76.70
8313;DHT22;4194;43.408;24.626;2022-09-29T16:10:55;23.30;76.10
8313;DHT22;4194;43.408;24.626;2022-09-29T16:13:24;23.30;76.80
8313;DHT22;4194;43.408;24.626;2022-09-29T16:16:04;23.20;77.70
8313;DHT22;4194;43.408;24.626;2022-09-29T16:18:32;22.70;78.80
8313;DHT22;4194;43.408;24.626;2022-09-29T16:21:22;22.90;81.60
8313;DHT22;4194;43.408;24.626;2022-09-29T16:23:52;22.80;79.90
8313;DHT22;4194;43.408;24.626;2022-09-29T16:31:36;22.70;81.10
8313;DHT22;4194;43.408;24.626;2022-09-29T16:34:20;22.50;82.50
8313;DHT22;4194;43.408;24.626;2022-09-29T16:36:58;22.40;83.10
8313;DHT22;4194;43.408;24.626;2022-09-29T16:39:42;22.30;84.50
8313;DHT22;4194;43.408;24.626;2022-09-29T16:42:23;22.60;86.10
8313;DHT22;4194;43.408;24.626;2022-09-29T16:44:50;22.10;88.30
8313;DHT22;4194;43.408;24.626;2022-09-29T16:58:09;21.50;93.00
8313;DHT22;4194;43.408;24.626;2022-09-29T17:00:37;21.20;94.90
8313;DHT22;4194;43.408;24.626;2022-09-29T17:03:02;20.90;95.70
8313;DHT22;4194;43.408;24.626;2022-09-29T17:05:37;21.30;96.80
8313;DHT22;4194;43.408;24.626;2022-09-29T17:08:05;21.40;97.10
8313;DHT22;4194;43.408;24.626;2022-09-29T17:10:38;21.20;97.50
8313;DHT22;4194;43.408;24.626;2022-09-29T17:13:10;21.10;98.20
8313;DHT22;4194;43.408;24.626;2022-09-29T17:15:38;21.50;99.90
8313;DHT22;4194;43.408;24.626;2022-09-29T17:18:03;21.10;99.90
8313;DHT22;4194;43.408;24.626;2022-09-29T17:20:29;21.30;99.90
8313;DHT22;4194;43.408;24.626;2022-09-29T17:22:55;21.40;99.90
8313;DHT22;4194;43.408;24.626;2022-09-29T17:25:22;20.50;99.90
8313;DHT22;4194;43.408;24.626;2022-09-29T17:27:47;20.40;99.90
8313;DHT22;4194;43.408;24.626;2022-09-29T17:30:31;20.60;99.90
8313;DHT22;4194;43.408;24.626;2022-09-29T17:32:58;20.20;99.90
8313;DHT22;4194;43.408;24.626;2022-09-29T17:35:34;19.50;99.90
8313;DHT22;4194;43.408;24.626;2022-09-29T17:38:02;21.10;99.90
8313;DHT22;4194;43.408;24.626;2022-09-29T17:43:29;20.70;99.90
8313;DHT22;4194;43.408;24.626;2022-09-29T17:45:59;20.50;99.90
8313;DHT22;4194;43.408;24.626;2022-09-29T17:48:26;20.50;99.90
8313;DHT22;4194;43.408;24.626;2022-09-29T17:50:53;19.80;99.90
8313;DHT22;4194;43.408;24.626;2022-09-29T17:53:21;18.90;99.90
8313;DHT22;4194;43.408;24.626;2022-09-29T17:55:49;20.20;99.90
8313;DHT22;4194;43.408;24.626;2022-09-29T17:58:17;20.80;99.90
8313;DHT22;4194;43.408;24.626;2022-09-29T18:00:46;21.60;99.90
8313;DHT22;4194;43.408;24.626;2022-09-29T18:03:13;19.60;99.90
8313;DHT22;4194;43.408;24.626;2022-09-29T18:05:42;19.50;99.90
8313;DHT22;4194;43.408;24.626;2022-09-29T18:08:18;19.40;99.90
8313;DHT22;4194;43.408;24.626;2022-09-29T18:11:00;20.30;99.90
8313;DHT22;4194;43.408;24.626;2022-09-29T18:13:27;20.70;99.90
8313;DHT22;4194;43.408;24.626;2022-09-29T18:15:54;20.20;99.90
8313;DHT22;4194;43.408;24.626;2022-09-29T18:18:21;19.40;99.90
8313;DHT22;4194;43.408;24.626;2022-09-29T18:20:48;19.40;99.90
8313;DHT22;4194;43.408;24.626;2022-09-29T18:23:15;20.30;99.90
8313;DHT22;4194;43.408;24.626;2022-09-29T18:25:42;19.90;99.90
8313;DHT22;4194;43.408;24.626;2022-09-29T18:28:11;19.80;99.90
8313;DHT22;4194;43.408;24.626;2022-09-29T18:30:37;20.10;99.90
8313;DHT22;4194;43.408;24.626;2022-09-29T18:33:11;19.70;99.90
8313;DHT22;4194;43.408;24.626;2022-09-29T18:35:37;18.80;99.90
8313;DHT22;4194;43.408;24.626;2022-09-29T18:38:05;19.70;99.90
8313;DHT22;4194;43.408;24.626;2022-09-29T18:40:32;20.00;99.90
8313;DHT22;4194;43.408;24.626;2022-09-29T18:42:57;20.70;99.90
8313;DHT22;4194;43.408;24.626;2022-09-29T18:45:28;19.10;99.90
8313;DHT22;4194;43.408;24.626;2022-09-29T18:47:56;19.40;99.90
8313;DHT22;4194;43.408;24.626;2022-09-29T18:50:30;19.30;99.90
8313;DHT22;4194;43.408;24.626;2022-09-29T18:52:56;18.60;99.90
8313;DHT22;4194;43.408;24.626;2022-09-29T18:55:24;19.20;99.90
8313;DHT22;4194;43.408;24.626;2022-09-29T18:57:52;19.20;99.90
8313;DHT22;4194;43.408;24.626;2022-09-29T19:00:20;18.70;99.90
8313;DHT22;4194;43.408;24.626;2022-09-29T19:02:46;19.10;99.90
8313;DHT22;4194;43.408;24.626;2022-09-29T19:05:23;19.00;99.90
8313;DHT22;4194;43.408;24.626;2022-09-29T19:07:54;19.50;99.90
8313;DHT22;4194;43.408;24.626;2022-09-29T19:10:20;19.20;99.90
8313;DHT22;4194;43.408;24.626;2022-09-29T19:12:48;19.00;99.90
8313;DHT22;4194;43.408;24.626;2022-09-29T19:15:19;19.10;99.90
8313;DHT22;4194;43.408;24.626;2022-09-29T19:17:45;19.00;99.90